Terminal Aerodrome Forecast
Issued by NWS

Home | Current Version | Previous Version | Text Only | Print | Product List | Glossary On
Versions: 1 2 3 4 5 6 7 8 9 10 11 12 13 14 15 16 17 18 19 20 21 22 23
000
FTUS41 KGYX 050136 AAA
TAFHIE
TAF AMD
KHIE 050136Z 0502/0524 00000KT P6SM SCT030 BKN150
     FM051200 00000KT P6SM BKN050 OVC080
     FM051400 VRB03KT 1 1/2SM -SN OVC012=

USA.gov is the U.S. government's official web portal to all federal, state and local government web resources and services.